ASL59L LIBD-LYBE
Flight info
| Callsign | ASL59L |
|---|---|
| Flight time | 1h 9m |
| Altitude | 19000 |
| Route | VURKE Z748 CRAYE W36 POD N732 TORTO P129 ELGEB |
| Aircraft | AT76/M-SDFGIRY/S |
Departure
| Time | 2026-05-07 18:33 |
|---|---|
| Airport | Bari Karol Wojtyła International Airport (LIBD) |
Arrival
| Time | 2026-05-07 19:43 |
|---|---|
| Airport | Belgrade Nikola Tesla Airport (LYBE) |
| Time | Latitude | Longitude | Altitude | Speed | Heading |
|---|---|---|---|---|---|
| 2026-05-07 18:18 | 41.13623 | 16.76162 | 149 ft | 0 kts | 16° |
| 2026-05-07 18:26 | 41.13624 | 16.76162 | 149 ft | 1 kts | 18° |
| 2026-05-07 18:27 | 41.13625 | 16.76177 | 149 ft | 2 kts | 106° |
| 2026-05-07 18:27 | 41.13616 | 16.76190 | 149 ft | 3 kts | 132° |
| 2026-05-07 18:27 | 41.13585 | 16.76214 | 149 ft | 6 kts | 175° |
| 2026-05-07 18:27 | 41.13557 | 16.76178 | 150 ft | 7 kts | 234° |
| 2026-05-07 18:28 | 41.13568 | 16.76099 | 152 ft | 12 kts | 311° |
| 2026-05-07 18:28 | 41.13636 | 16.76000 | 153 ft | 15 kts | 283° |
| 2026-05-07 18:28 | 41.13617 | 16.75892 | 158 ft | 10 kts | 250° |
| 2026-05-07 18:28 | 41.13591 | 16.75801 | 161 ft | 12 kts | 249° |
| 2026-05-07 18:29 | 41.13567 | 16.75715 | 162 ft | 4 kts | 250° |
| 2026-05-07 18:29 | 41.13550 | 16.75655 | 163 ft | 9 kts | 249° |
| 2026-05-07 18:29 | 41.13524 | 16.75564 | 165 ft | 12 kts | 249° |
| 2026-05-07 18:29 | 41.13493 | 16.75455 | 166 ft | 14 kts | 249° |
| 2026-05-07 18:30 | 41.13456 | 16.75324 | 167 ft | 16 kts | 249° |
| 2026-05-07 18:30 | 41.13418 | 16.75190 | 171 ft | 15 kts | 249° |
| 2026-05-07 18:30 | 41.13382 | 16.75063 | 175 ft | 15 kts | 249° |
| 2026-05-07 18:30 | 41.13345 | 16.74932 | 179 ft | 15 kts | 249° |
| 2026-05-07 18:31 | 41.13310 | 16.74809 | 200 ft | 13 kts | 250° |
| 2026-05-07 18:31 | 41.13275 | 16.74686 | 196 ft | 15 kts | 249° |
| 2026-05-07 18:31 | 41.13237 | 16.74552 | 197 ft | 16 kts | 249° |
| 2026-05-07 18:31 | 41.13200 | 16.74420 | 202 ft | 15 kts | 249° |
| 2026-05-07 18:32 | 41.13165 | 16.74285 | 205 ft | 16 kts | 262° |
| 2026-05-07 18:32 | 41.13213 | 16.74145 | 195 ft | 18 kts | 309° |
| 2026-05-07 18:32 | 41.13288 | 16.74088 | 197 ft | 6 kts | 17° |
| 2026-05-07 18:32 | 41.13304 | 16.74128 | 195 ft | 5 kts | 69° |
| 2026-05-07 18:33 | 41.13366 | 16.74349 | 191 ft | 57 kts | 69° |
| 2026-05-07 18:33 | 41.13576 | 16.75087 | 169 ft | 114 kts | 69° |
| 2026-05-07 18:33 | 41.13891 | 16.76170 | 493 ft | 126 kts | 70° |
| 2026-05-07 18:33 | 41.14217 | 16.77257 | 1043 ft | 128 kts | 72° |
| 2026-05-07 18:34 | 41.14539 | 16.78352 | 1655 ft | 125 kts | 76° |
| 2026-05-07 18:34 | 41.14867 | 16.79479 | 2011 ft | 139 kts | 78° |
| 2026-05-07 18:34 | 41.15220 | 16.80721 | 2261 ft | 152 kts | 78° |
| 2026-05-07 18:34 | 41.15610 | 16.82128 | 2437 ft | 170 kts | 78° |
| 2026-05-07 18:35 | 41.16027 | 16.83639 | 2753 ft | 177 kts | 78° |
| 2026-05-07 18:35 | 41.16460 | 16.85195 | 3124 ft | 180 kts | 77° |
| 2026-05-07 18:35 | 41.16902 | 16.86771 | 3528 ft | 183 kts | 77° |
| 2026-05-07 18:35 | 41.17348 | 16.88367 | 3914 ft | 184 kts | 77° |
| 2026-05-07 18:36 | 41.17790 | 16.89952 | 4313 ft | 185 kts | 77° |
| 2026-05-07 18:36 | 41.18242 | 16.91557 | 4687 ft | 187 kts | 77° |
| 2026-05-07 18:36 | 41.18695 | 16.93176 | 5054 ft | 186 kts | 77° |
| 2026-05-07 18:36 | 41.18848 | 16.94839 | 5349 ft | 180 kts | 98° |
| 2026-05-07 18:37 | 41.18796 | 16.96484 | 5701 ft | 181 kts | 99° |
| 2026-05-07 18:37 | 41.18734 | 16.98163 | 6068 ft | 182 kts | 98° |
| 2026-05-07 18:37 | 41.18684 | 16.99851 | 6422 ft | 184 kts | 98° |
| 2026-05-07 18:37 | 41.18631 | 17.01556 | 6762 ft | 185 kts | 97° |
| 2026-05-07 18:38 | 41.18587 | 17.03277 | 7102 ft | 186 kts | 97° |
| 2026-05-07 18:38 | 41.18556 | 17.04973 | 7440 ft | 186 kts | 96° |
| 2026-05-07 18:38 | 41.18526 | 17.06702 | 7774 ft | 188 kts | 96° |
| 2026-05-07 18:38 | 41.18498 | 17.08450 | 8092 ft | 190 kts | 96° |
| 2026-05-07 18:39 | 41.18472 | 17.10209 | 8420 ft | 191 kts | 96° |
| 2026-05-07 18:39 | 41.18444 | 17.11954 | 8750 ft | 192 kts | 96° |
| 2026-05-07 18:39 | 41.18417 | 17.13732 | 9073 ft | 193 kts | 96° |
| 2026-05-07 18:39 | 41.18388 | 17.15517 | 9380 ft | 194 kts | 96° |
| 2026-05-07 18:40 | 41.18679 | 17.17282 | 9617 ft | 201 kts | 69° |
| 2026-05-07 18:40 | 41.19304 | 17.18971 | 9888 ft | 205 kts | 68° |
| 2026-05-07 18:40 | 41.19935 | 17.20645 | 10169 ft | 205 kts | 68° |
| 2026-05-07 18:40 | 41.20565 | 17.22354 | 10447 ft | 207 kts | 69° |
| 2026-05-07 18:41 | 41.21175 | 17.24095 | 10719 ft | 208 kts | 70° |
| 2026-05-07 18:41 | 41.21772 | 17.25860 | 10998 ft | 209 kts | 70° |
| 2026-05-07 18:41 | 41.22366 | 17.27634 | 11262 ft | 211 kts | 70° |
| 2026-05-07 18:41 | 41.22953 | 17.29398 | 11530 ft | 212 kts | 70° |
| 2026-05-07 18:42 | 41.23550 | 17.31199 | 11801 ft | 213 kts | 70° |
| 2026-05-07 18:42 | 41.24152 | 17.33013 | 12084 ft | 214 kts | 70° |
| 2026-05-07 18:42 | 41.24750 | 17.34817 | 12340 ft | 216 kts | 70° |
| 2026-05-07 18:42 | 41.25358 | 17.36651 | 12611 ft | 217 kts | 70° |
| 2026-05-07 18:43 | 41.25970 | 17.38496 | 12883 ft | 218 kts | 69° |
| 2026-05-07 18:43 | 41.26586 | 17.40352 | 13140 ft | 220 kts | 69° |
| 2026-05-07 18:43 | 41.27205 | 17.42220 | 13392 ft | 221 kts | 69° |
| 2026-05-07 18:43 | 41.27825 | 17.44096 | 13646 ft | 222 kts | 69° |
| 2026-05-07 18:44 | 41.28444 | 17.45965 | 13886 ft | 224 kts | 69° |
| 2026-05-07 18:44 | 41.29073 | 17.47869 | 14110 ft | 225 kts | 69° |
| 2026-05-07 18:44 | 41.29706 | 17.49785 | 14336 ft | 226 kts | 69° |
| 2026-05-07 18:44 | 41.30342 | 17.51716 | 14549 ft | 227 kts | 69° |
| 2026-05-07 18:45 | 41.30972 | 17.53629 | 14755 ft | 229 kts | 69° |
| 2026-05-07 18:45 | 41.31616 | 17.55581 | 14969 ft | 230 kts | 68° |
| 2026-05-07 18:45 | 41.32250 | 17.57508 | 15162 ft | 231 kts | 68° |
| 2026-05-07 18:45 | 41.32897 | 17.59468 | 15355 ft | 232 kts | 68° |
| 2026-05-07 18:46 | 41.33545 | 17.61440 | 15549 ft | 233 kts | 68° |
| 2026-05-07 18:46 | 41.34197 | 17.63421 | 15742 ft | 234 kts | 68° |
| 2026-05-07 18:46 | 41.34850 | 17.65410 | 15936 ft | 235 kts | 68° |
| 2026-05-07 18:46 | 41.35499 | 17.67389 | 16137 ft | 236 kts | 68° |
| 2026-05-07 18:47 | 41.36159 | 17.69401 | 16340 ft | 237 kts | 68° |
| 2026-05-07 18:47 | 41.36820 | 17.71419 | 16540 ft | 238 kts | 68° |
| 2026-05-07 18:47 | 41.37485 | 17.73450 | 16742 ft | 239 kts | 68° |
| 2026-05-07 18:47 | 41.38151 | 17.75481 | 16927 ft | 240 kts | 67° |
| 2026-05-07 18:48 | 41.38811 | 17.77500 | 17107 ft | 241 kts | 67° |
| 2026-05-07 18:48 | 41.39483 | 17.79555 | 17291 ft | 242 kts | 67° |
| 2026-05-07 18:48 | 41.40158 | 17.81624 | 17461 ft | 243 kts | 67° |
| 2026-05-07 18:48 | 41.40834 | 17.83696 | 17634 ft | 244 kts | 67° |
| 2026-05-07 18:49 | 41.41504 | 17.85753 | 17800 ft | 245 kts | 67° |
| 2026-05-07 18:49 | 41.42182 | 17.87835 | 17944 ft | 245 kts | 67° |
| 2026-05-07 18:49 | 41.42866 | 17.89933 | 18128 ft | 246 kts | 66° |
| 2026-05-07 18:49 | 41.43543 | 17.92013 | 18310 ft | 247 kts | 66° |
| 2026-05-07 18:50 | 41.44228 | 17.94119 | 18467 ft | 248 kts | 66° |
| 2026-05-07 18:50 | 41.44916 | 17.96236 | 18624 ft | 249 kts | 66° |
| 2026-05-07 18:50 | 41.45604 | 17.98361 | 18768 ft | 250 kts | 66° |
| 2026-05-07 18:50 | 41.46296 | 18.00491 | 18910 ft | 251 kts | 66° |
| 2026-05-07 18:51 | 41.46992 | 18.02642 | 18972 ft | 255 kts | 66° |
| 2026-05-07 18:51 | 41.47694 | 18.04813 | 19011 ft | 260 kts | 66° |
| 2026-05-07 18:51 | 41.48418 | 18.07047 | 19031 ft | 265 kts | 66° |
| 2026-05-07 18:51 | 41.49154 | 18.09322 | 19039 ft | 269 kts | 66° |
| 2026-05-07 18:52 | 41.49906 | 18.11639 | 19044 ft | 272 kts | 65° |
| 2026-05-07 18:52 | 41.51018 | 18.13649 | 19053 ft | 270 kts | 35° |
| 2026-05-07 18:52 | 41.52615 | 18.14944 | 19049 ft | 269 kts | 24° |
| 2026-05-07 18:52 | 41.54307 | 18.16050 | 19049 ft | 271 kts | 22° |
| 2026-05-07 18:53 | 41.55994 | 18.17148 | 19048 ft | 274 kts | 23° |
| 2026-05-07 18:53 | 41.57695 | 18.18344 | 19053 ft | 277 kts | 26° |
| 2026-05-07 18:53 | 41.59380 | 18.19616 | 19055 ft | 279 kts | 27° |
| 2026-05-07 18:53 | 41.61078 | 18.20906 | 19054 ft | 280 kts | 26° |
| 2026-05-07 18:54 | 41.62763 | 18.22168 | 19057 ft | 281 kts | 26° |
| 2026-05-07 18:54 | 41.64481 | 18.23453 | 19053 ft | 282 kts | 26° |
| 2026-05-07 18:54 | 41.66199 | 18.24740 | 19058 ft | 283 kts | 26° |
| 2026-05-07 18:54 | 41.67924 | 18.26032 | 19055 ft | 283 kts | 26° |
| 2026-05-07 18:55 | 41.69647 | 18.27324 | 19055 ft | 283 kts | 26° |
| 2026-05-07 18:55 | 41.71346 | 18.28598 | 19053 ft | 284 kts | 26° |
| 2026-05-07 18:55 | 41.73076 | 18.29896 | 19060 ft | 284 kts | 26° |
| 2026-05-07 18:55 | 41.74805 | 18.31194 | 19061 ft | 284 kts | 26° |
| 2026-05-07 18:56 | 41.76529 | 18.32489 | 19060 ft | 285 kts | 26° |
| 2026-05-07 18:56 | 41.78258 | 18.33789 | 19059 ft | 285 kts | 26° |
| 2026-05-07 18:56 | 41.79969 | 18.35076 | 19059 ft | 285 kts | 26° |
| 2026-05-07 18:56 | 41.81697 | 18.36382 | 19058 ft | 285 kts | 26° |
| 2026-05-07 18:57 | 41.83428 | 18.37685 | 19061 ft | 285 kts | 26° |
| 2026-05-07 18:57 | 41.85165 | 18.38992 | 19063 ft | 286 kts | 26° |
| 2026-05-07 18:57 | 41.86906 | 18.40305 | 19061 ft | 286 kts | 26° |
| 2026-05-07 18:57 | 41.88641 | 18.41613 | 19065 ft | 286 kts | 26° |
| 2026-05-07 18:58 | 41.90360 | 18.42914 | 19063 ft | 286 kts | 26° |
| 2026-05-07 18:58 | 41.92100 | 18.44228 | 19063 ft | 286 kts | 26° |
| 2026-05-07 18:58 | 41.93845 | 18.45546 | 19062 ft | 287 kts | 26° |
| 2026-05-07 18:58 | 41.95583 | 18.46862 | 19065 ft | 287 kts | 26° |
| 2026-05-07 18:59 | 41.97306 | 18.48166 | 19063 ft | 287 kts | 26° |
| 2026-05-07 18:59 | 41.99042 | 18.49481 | 19067 ft | 287 kts | 26° |
| 2026-05-07 18:59 | 42.00785 | 18.50803 | 19067 ft | 287 kts | 26° |
| 2026-05-07 18:59 | 42.02526 | 18.52121 | 19065 ft | 287 kts | 26° |
| 2026-05-07 19:00 | 42.04270 | 18.53446 | 19067 ft | 287 kts | 26° |
| 2026-05-07 19:00 | 42.06012 | 18.54769 | 19063 ft | 287 kts | 26° |
| 2026-05-07 19:00 | 42.07761 | 18.56097 | 19065 ft | 288 kts | 26° |
| 2026-05-07 19:00 | 42.09480 | 18.57405 | 19066 ft | 288 kts | 26° |
| 2026-05-07 19:01 | 42.11228 | 18.58734 | 19069 ft | 288 kts | 26° |
| 2026-05-07 19:01 | 42.12971 | 18.60063 | 19072 ft | 288 kts | 26° |
| 2026-05-07 19:01 | 42.14720 | 18.61396 | 19071 ft | 288 kts | 26° |
| 2026-05-07 19:01 | 42.15879 | 18.62277 | 19070 ft | 288 kts | 26° |
| 2026-05-07 19:02 | 42.17623 | 18.63609 | 19075 ft | 288 kts | 26° |
| 2026-05-07 19:02 | 42.19937 | 18.65374 | 19073 ft | 288 kts | 26° |
| 2026-05-07 19:02 | 42.21098 | 18.66259 | 19072 ft | 288 kts | 26° |
| 2026-05-07 19:02 | 42.22839 | 18.67592 | 19076 ft | 288 kts | 26° |
| 2026-05-07 19:03 | 42.24589 | 18.68930 | 19071 ft | 288 kts | 26° |
| 2026-05-07 19:03 | 42.26338 | 18.70265 | 19074 ft | 288 kts | 26° |
| 2026-05-07 19:03 | 42.28066 | 18.71589 | 19075 ft | 288 kts | 26° |
| 2026-05-07 19:03 | 42.29809 | 18.72925 | 19075 ft | 288 kts | 26° |
| 2026-05-07 19:04 | 42.31553 | 18.74261 | 19088 ft | 288 kts | 26° |
| 2026-05-07 19:04 | 42.33306 | 18.75609 | 19083 ft | 289 kts | 26° |
| 2026-05-07 19:04 | 42.35057 | 18.76954 | 19071 ft | 289 kts | 26° |
| 2026-05-07 19:04 | 42.36790 | 18.78281 | 19081 ft | 290 kts | 26° |
| 2026-05-07 19:05 | 42.38542 | 18.79630 | 19082 ft | 290 kts | 26° |
| 2026-05-07 19:05 | 42.40308 | 18.80989 | 19080 ft | 291 kts | 26° |
| 2026-05-07 19:05 | 42.42073 | 18.82345 | 19076 ft | 292 kts | 26° |
| 2026-05-07 19:05 | 42.43838 | 18.83706 | 19077 ft | 292 kts | 26° |
| 2026-05-07 19:06 | 42.45607 | 18.85067 | 19073 ft | 292 kts | 26° |
| 2026-05-07 19:06 | 42.49143 | 18.87793 | 19076 ft | 291 kts | 26° |
| 2026-05-07 19:06 | 42.50878 | 18.89134 | 19081 ft | 291 kts | 26° |
| 2026-05-07 19:07 | 42.52643 | 18.90497 | 19083 ft | 290 kts | 26° |
| 2026-05-07 19:07 | 42.54407 | 18.91859 | 19089 ft | 290 kts | 26° |
| 2026-05-07 19:07 | 42.56143 | 18.93205 | 19093 ft | 291 kts | 26° |
| 2026-05-07 19:07 | 42.57900 | 18.94563 | 19087 ft | 290 kts | 26° |
| 2026-05-07 19:08 | 42.59662 | 18.95926 | 19091 ft | 290 kts | 26° |
| 2026-05-07 19:08 | 42.61397 | 18.97273 | 19088 ft | 290 kts | 26° |
| 2026-05-07 19:08 | 42.63148 | 18.98633 | 19101 ft | 289 kts | 26° |
| 2026-05-07 19:08 | 42.64901 | 18.99991 | 19117 ft | 289 kts | 26° |
| 2026-05-07 19:09 | 42.66638 | 19.01340 | 19107 ft | 291 kts | 26° |
| 2026-05-07 19:09 | 42.68399 | 19.02705 | 19109 ft | 292 kts | 26° |
| 2026-05-07 19:09 | 42.70169 | 19.04085 | 19104 ft | 292 kts | 26° |
| 2026-05-07 19:09 | 42.71935 | 19.05456 | 19106 ft | 292 kts | 26° |
| 2026-05-07 19:10 | 42.73687 | 19.06818 | 19105 ft | 292 kts | 26° |
| 2026-05-07 19:10 | 42.75453 | 19.08195 | 19110 ft | 292 kts | 26° |
| 2026-05-07 19:10 | 42.77224 | 19.09575 | 19111 ft | 292 kts | 26° |
| 2026-05-07 19:10 | 42.78971 | 19.10939 | 19111 ft | 292 kts | 26° |
| 2026-05-07 19:11 | 42.80735 | 19.12316 | 19108 ft | 292 kts | 26° |
| 2026-05-07 19:11 | 42.82500 | 19.13694 | 19113 ft | 292 kts | 26° |
| 2026-05-07 19:11 | 42.84262 | 19.15072 | 19106 ft | 292 kts | 26° |
| 2026-05-07 19:11 | 42.86031 | 19.16457 | 19110 ft | 292 kts | 26° |
| 2026-05-07 19:12 | 42.87796 | 19.17837 | 19109 ft | 292 kts | 26° |
| 2026-05-07 19:12 | 42.89562 | 19.19220 | 19110 ft | 292 kts | 26° |
| 2026-05-07 19:12 | 42.91312 | 19.20592 | 19108 ft | 293 kts | 26° |
| 2026-05-07 19:12 | 42.93076 | 19.21976 | 19101 ft | 292 kts | 26° |
| 2026-05-07 19:13 | 42.94844 | 19.23363 | 19108 ft | 292 kts | 26° |
| 2026-05-07 19:13 | 42.96615 | 19.24755 | 19105 ft | 293 kts | 26° |
| 2026-05-07 19:13 | 42.98383 | 19.26145 | 19100 ft | 292 kts | 26° |
| 2026-05-07 19:13 | 43.00126 | 19.27516 | 19095 ft | 291 kts | 26° |
| 2026-05-07 19:14 | 43.01880 | 19.28896 | 19102 ft | 291 kts | 26° |
| 2026-05-07 19:14 | 43.03634 | 19.30277 | 19100 ft | 290 kts | 26° |
| 2026-05-07 19:14 | 43.05384 | 19.31656 | 19105 ft | 290 kts | 26° |
| 2026-05-07 19:14 | 43.07142 | 19.33042 | 19105 ft | 291 kts | 26° |
| 2026-05-07 19:15 | 43.08871 | 19.34407 | 19089 ft | 291 kts | 26° |
| 2026-05-07 19:15 | 43.10620 | 19.35792 | 19096 ft | 289 kts | 26° |
| 2026-05-07 19:15 | 43.12360 | 19.37178 | 19107 ft | 290 kts | 26° |
| 2026-05-07 19:15 | 43.14121 | 19.38566 | 19107 ft | 292 kts | 26° |
| 2026-05-07 19:16 | 43.15890 | 19.39960 | 19100 ft | 293 kts | 26° |
| 2026-05-07 19:16 | 43.17654 | 19.41356 | 19090 ft | 293 kts | 26° |
| 2026-05-07 19:16 | 43.19403 | 19.42744 | 19081 ft | 293 kts | 26° |
| 2026-05-07 19:16 | 43.21169 | 19.44144 | 19087 ft | 293 kts | 26° |
| 2026-05-07 19:17 | 43.22936 | 19.45544 | 19099 ft | 293 kts | 26° |
| 2026-05-07 19:17 | 43.24712 | 19.46955 | 19093 ft | 294 kts | 26° |
| 2026-05-07 19:17 | 43.26491 | 19.48365 | 19089 ft | 295 kts | 26° |
| 2026-05-07 19:17 | 43.28246 | 19.49759 | 19084 ft | 295 kts | 26° |
| 2026-05-07 19:18 | 43.30021 | 19.51175 | 19085 ft | 294 kts | 26° |
| 2026-05-07 19:18 | 43.31801 | 19.52590 | 19098 ft | 295 kts | 26° |
| 2026-05-07 19:18 | 43.33581 | 19.54007 | 19062 ft | 295 kts | 26° |
| 2026-05-07 19:18 | 43.35341 | 19.55409 | 19071 ft | 294 kts | 26° |
| 2026-05-07 19:19 | 43.37113 | 19.56823 | 19072 ft | 294 kts | 26° |
| 2026-05-07 19:19 | 43.38882 | 19.58234 | 19089 ft | 294 kts | 26° |
| 2026-05-07 19:19 | 43.40653 | 19.59654 | 19092 ft | 294 kts | 26° |
| 2026-05-07 19:19 | 43.42425 | 19.61071 | 19076 ft | 294 kts | 26° |
| 2026-05-07 19:20 | 43.44195 | 19.62487 | 19086 ft | 294 kts | 26° |
| 2026-05-07 19:20 | 43.45940 | 19.63884 | 19084 ft | 294 kts | 26° |
| 2026-05-07 19:20 | 43.47712 | 19.65301 | 19079 ft | 294 kts | 26° |
| 2026-05-07 19:20 | 43.49486 | 19.66725 | 19086 ft | 294 kts | 26° |
| 2026-05-07 19:21 | 43.51261 | 19.68145 | 19065 ft | 295 kts | 26° |
| 2026-05-07 19:21 | 43.53014 | 19.69555 | 19083 ft | 295 kts | 26° |
| 2026-05-07 19:21 | 43.54798 | 19.70987 | 19076 ft | 296 kts | 26° |
| 2026-05-07 19:21 | 43.56584 | 19.72425 | 19079 ft | 296 kts | 26° |
| 2026-05-07 19:22 | 43.58350 | 19.73842 | 19086 ft | 296 kts | 26° |
| 2026-05-07 19:22 | 43.60132 | 19.75276 | 19077 ft | 297 kts | 26° |
| 2026-05-07 19:22 | 43.61921 | 19.76718 | 19066 ft | 297 kts | 26° |
| 2026-05-07 19:22 | 43.63687 | 19.78143 | 19072 ft | 297 kts | 26° |
| 2026-05-07 19:23 | 43.65473 | 19.79581 | 19061 ft | 296 kts | 26° |
| 2026-05-07 19:23 | 43.67253 | 19.81021 | 19074 ft | 295 kts | 26° |
| 2026-05-07 19:23 | 43.69034 | 19.82455 | 19067 ft | 296 kts | 26° |
| 2026-05-07 19:23 | 43.70806 | 19.83890 | 19059 ft | 295 kts | 26° |
| 2026-05-07 19:24 | 43.72577 | 19.85320 | 19066 ft | 294 kts | 26° |
| 2026-05-07 19:24 | 43.74318 | 19.86735 | 19073 ft | 294 kts | 26° |
| 2026-05-07 19:24 | 43.76086 | 19.88163 | 19063 ft | 294 kts | 26° |
| 2026-05-07 19:24 | 43.77862 | 19.89601 | 19059 ft | 294 kts | 26° |
| 2026-05-07 19:25 | 43.79623 | 19.91031 | 19065 ft | 294 kts | 26° |
| 2026-05-07 19:25 | 43.81390 | 19.92464 | 19044 ft | 293 kts | 26° |
| 2026-05-07 19:25 | 43.83152 | 19.93893 | 19061 ft | 292 kts | 27° |
| 2026-05-07 19:25 | 43.84888 | 19.95303 | 19056 ft | 292 kts | 27° |
| 2026-05-07 19:26 | 43.86646 | 19.96733 | 19063 ft | 292 kts | 27° |
| 2026-05-07 19:26 | 43.88405 | 19.98165 | 19054 ft | 293 kts | 27° |
| 2026-05-07 19:26 | 43.90176 | 19.99607 | 18934 ft | 297 kts | 27° |
| 2026-05-07 19:26 | 43.91974 | 20.01073 | 18826 ft | 301 kts | 27° |
| 2026-05-07 19:27 | 43.93790 | 20.02554 | 18705 ft | 303 kts | 27° |
| 2026-05-07 19:27 | 43.95596 | 20.04028 | 18600 ft | 306 kts | 27° |
| 2026-05-07 19:27 | 43.97442 | 20.05537 | 18488 ft | 307 kts | 27° |
| 2026-05-07 19:27 | 43.99292 | 20.07049 | 18373 ft | 309 kts | 27° |
| 2026-05-07 19:28 | 44.01137 | 20.08558 | 18219 ft | 310 kts | 27° |
| 2026-05-07 19:28 | 44.02993 | 20.10075 | 18035 ft | 312 kts | 27° |
| 2026-05-07 19:28 | 44.04895 | 20.11635 | 17615 ft | 321 kts | 27° |
| 2026-05-07 19:28 | 44.06833 | 20.13230 | 17184 ft | 325 kts | 27° |
| 2026-05-07 19:29 | 44.08792 | 20.14835 | 16759 ft | 326 kts | 27° |
| 2026-05-07 19:29 | 44.10740 | 20.16433 | 16339 ft | 324 kts | 27° |
| 2026-05-07 19:29 | 44.12664 | 20.17996 | 15939 ft | 321 kts | 26° |
| 2026-05-07 19:29 | 44.14605 | 20.19528 | 15541 ft | 319 kts | 26° |
| 2026-05-07 19:30 | 44.16538 | 20.21037 | 15145 ft | 317 kts | 25° |
| 2026-05-07 19:30 | 44.18484 | 20.22467 | 14751 ft | 314 kts | 24° |
| 2026-05-07 19:30 | 44.20428 | 20.23853 | 14379 ft | 313 kts | 24° |
| 2026-05-07 19:30 | 44.22336 | 20.25227 | 14009 ft | 312 kts | 24° |
| 2026-05-07 19:31 | 44.24260 | 20.26619 | 13610 ft | 310 kts | 24° |
| 2026-05-07 19:31 | 44.26169 | 20.28002 | 13191 ft | 306 kts | 24° |
| 2026-05-07 19:31 | 44.28054 | 20.29362 | 12786 ft | 303 kts | 24° |
| 2026-05-07 19:31 | 44.29918 | 20.30710 | 12389 ft | 301 kts | 25° |
| 2026-05-07 19:32 | 44.31772 | 20.32057 | 12007 ft | 298 kts | 25° |
| 2026-05-07 19:32 | 44.33608 | 20.33391 | 11628 ft | 296 kts | 25° |
| 2026-05-07 19:32 | 44.35414 | 20.34696 | 11260 ft | 295 kts | 25° |
| 2026-05-07 19:32 | 44.37231 | 20.36016 | 10892 ft | 293 kts | 25° |
| 2026-05-07 19:33 | 44.39038 | 20.37329 | 10537 ft | 292 kts | 25° |
| 2026-05-07 19:33 | 44.40825 | 20.38629 | 10194 ft | 291 kts | 25° |
| 2026-05-07 19:33 | 44.42620 | 20.39938 | 9817 ft | 290 kts | 26° |
| 2026-05-07 19:33 | 44.44387 | 20.41225 | 9426 ft | 288 kts | 26° |
| 2026-05-07 19:34 | 44.46164 | 20.42523 | 9054 ft | 287 kts | 26° |
| 2026-05-07 19:34 | 44.47929 | 20.43807 | 8682 ft | 285 kts | 26° |
| 2026-05-07 19:34 | 44.49692 | 20.45093 | 8317 ft | 283 kts | 26° |
| 2026-05-07 19:34 | 44.51433 | 20.46366 | 7959 ft | 281 kts | 25° |
| 2026-05-07 19:35 | 44.53146 | 20.47612 | 7599 ft | 280 kts | 26° |
| 2026-05-07 19:35 | 44.54871 | 20.48878 | 7242 ft | 278 kts | 26° |
| 2026-05-07 19:35 | 44.56573 | 20.50124 | 6892 ft | 275 kts | 25° |
| 2026-05-07 19:35 | 44.58264 | 20.51359 | 6579 ft | 272 kts | 25° |
| 2026-05-07 19:36 | 44.59921 | 20.52573 | 6280 ft | 270 kts | 26° |
| 2026-05-07 19:36 | 44.61580 | 20.53791 | 5939 ft | 268 kts | 25° |
| 2026-05-07 19:36 | 44.63237 | 20.54998 | 5624 ft | 267 kts | 25° |
| 2026-05-07 19:36 | 44.64822 | 20.56152 | 5292 ft | 244 kts | 25° |
| 2026-05-07 19:37 | 44.66291 | 20.57216 | 4961 ft | 235 kts | 24° |
| 2026-05-07 19:37 | 44.67851 | 20.57663 | 4639 ft | 229 kts | 350° |
| 2026-05-07 19:37 | 44.69342 | 20.57084 | 4325 ft | 225 kts | 339° |
| 2026-05-07 19:37 | 44.70777 | 20.56259 | 4007 ft | 220 kts | 323° |
| 2026-05-07 19:38 | 44.71723 | 20.54631 | 3681 ft | 215 kts | 296° |
| 2026-05-07 19:38 | 44.72427 | 20.52766 | 3378 ft | 216 kts | 295° |
| 2026-05-07 19:38 | 44.73098 | 20.50915 | 3236 ft | 208 kts | 295° |
| 2026-05-07 19:38 | 44.73738 | 20.49128 | 3133 ft | 200 kts | 295° |
| 2026-05-07 19:39 | 44.74445 | 20.47507 | 2889 ft | 190 kts | 301° |
| 2026-05-07 19:39 | 44.75173 | 20.45974 | 2597 ft | 186 kts | 301° |
| 2026-05-07 19:39 | 44.75843 | 20.44459 | 2414 ft | 181 kts | 299° |
| 2026-05-07 19:39 | 44.76483 | 20.42984 | 2127 ft | 172 kts | 300° |
| 2026-05-07 19:40 | 44.77085 | 20.41626 | 1936 ft | 158 kts | 301° |
| 2026-05-07 19:40 | 44.77595 | 20.40498 | 1759 ft | 156 kts | 300° |
| 2026-05-07 19:40 | 44.78142 | 20.39231 | 1502 ft | 148 kts | 300° |
| 2026-05-07 19:40 | 44.78670 | 20.38083 | 1316 ft | 130 kts | 301° |
| 2026-05-07 19:41 | 44.79087 | 20.37156 | 1154 ft | 119 kts | 300° |
| 2026-05-07 19:41 | 44.79519 | 20.36169 | 998 ft | 117 kts | 300° |
| 2026-05-07 19:41 | 44.79932 | 20.35205 | 841 ft | 116 kts | 300° |
| 2026-05-07 19:41 | 44.80358 | 20.34234 | 670 ft | 116 kts | 301° |
| 2026-05-07 19:42 | 44.80786 | 20.33275 | 486 ft | 115 kts | 302° |
| 2026-05-07 19:42 | 44.81212 | 20.32323 | 346 ft | 114 kts | 302° |
| 2026-05-07 19:42 | 44.81622 | 20.31403 | 302 ft | 109 kts | 302° |
| 2026-05-07 19:42 | 44.81933 | 20.30709 | 304 ft | 50 kts | 302° |
| 2026-05-07 19:43 | 44.82059 | 20.30429 | 301 ft | 21 kts | 302° |
| 2026-05-07 19:43 | 44.82128 | 20.30275 | 301 ft | 17 kts | 299° |
| 2026-05-07 19:43 | 44.82164 | 20.30139 | 301 ft | 13 kts | 287° |
| 2026-05-07 19:43 | 44.82168 | 20.30032 | 303 ft | 9 kts | 270° |
| 2026-05-07 19:44 | 44.82168 | 20.29948 | 305 ft | 8 kts | 270° |
| 2026-05-07 19:44 | 44.82168 | 20.29874 | 304 ft | 8 kts | 270° |
| 2026-05-07 19:44 | 44.82168 | 20.29799 | 304 ft | 8 kts | 270° |
| 2026-05-07 19:44 | 44.82165 | 20.29725 | 304 ft | 7 kts | 256° |
| 2026-05-07 19:45 | 44.82131 | 20.29676 | 306 ft | 8 kts | 214° |
| 2026-05-07 19:45 | 44.82076 | 20.29625 | 304 ft | 10 kts | 213° |
| 2026-05-07 19:45 | 44.82013 | 20.29568 | 305 ft | 8 kts | 212° |
| 2026-05-07 19:45 | 44.81961 | 20.29523 | 303 ft | 10 kts | 212° |
| 2026-05-07 19:46 | 44.81909 | 20.29477 | 305 ft | 6 kts | 210° |
| 2026-05-07 19:46 | 44.81878 | 20.29505 | 303 ft | 7 kts | 123° |
| 2026-05-07 19:46 | 44.81863 | 20.29539 | 304 ft | 0 kts | 122° |